Time;durP1;ratioP1;P1;durP2;ratioP2;P2;SDS_P1;SDS_P2;PMS_P1;PMS_P2;Temp;Humidity;BMP_temperature;BMP_pressure;BME280_temperature;BME280_humidity;BME280_pressure;Samples;Min_cycle;Max_cycle;Signal;HPM_P1;HPM_P2
2024/01/29 00:02:05;;;;;;;7.90;3.85;;;8.30;62.10;;;;;;5095522;28;20039;-71
2024/01/29 00:04:31;;;;;;;6.85;3.53;;;8.20;61.90;;;;;;5096727;28;20040;-71
2024/01/29 00:06:56;;;;;;;12.20;4.43;;;8.30;61.90;;;;;;5096886;28;20028;-71
2024/01/29 00:09:23;;;;;;;10.15;3.75;;;8.20;61.80;;;;;;5096852;28;20419;-71
2024/01/29 00:11:49;;;;;;;8.07;3.78;;;8.20;61.80;;;;;;5093973;28;20032;-70
2024/01/29 00:14:15;;;;;;;7.90;3.50;;;8.20;62.40;;;;;;5094759;28;20024;-71
2024/01/29 00:16:41;;;;;;;7.28;3.40;;;8.30;61.80;;;;;;5096073;28;20429;-70
2024/01/29 00:19:06;;;;;;;7.40;3.45;;;8.20;61.70;;;;;;5095926;28;20103;-70
2024/01/29 00:21:32;;;;;;;6.63;3.30;;;8.30;61.70;;;;;;5096689;28;20134;-70
2024/01/29 00:24:00;;;;;;;8.50;3.75;;;8.30;61.70;;;;;;5096509;28;20041;-70
2024/01/29 00:26:29;;;;;;;7.45;3.45;;;8.20;61.60;;;;;;5096349;28;20028;-70
2024/01/29 00:28:56;;;;;;;7.75;3.45;;;8.20;61.60;;;;;;5096263;28;20024;-71
2024/01/29 00:31:22;;;;;;;9.80;4.00;;;8.20;61.60;;;;;;5096569;28;20028;-70
2024/01/29 00:33:49;;;;;;;7.85;3.45;;;8.20;61.60;;;;;;5096428;28;20363;-70
2024/01/29 00:36:17;;;;;;;8.52;3.83;;;8.20;61.60;;;;;;5096419;28;20133;-70
2024/01/29 00:38:43;;;;;;;8.73;3.97;;;8.20;61.60;;;;;;5095077;28;20050;-71
2024/01/29 00:41:09;;;;;;;7.47;3.90;;;8.20;61.80;;;;;;5096294;28;20380;-70
2024/01/29 00:43:35;;;;;;;7.70;3.67;;;8.20;61.90;;;;;;5096247;28;20043;-71
2024/01/29 00:46:00;;;;;;;9.23;3.92;;;8.10;61.90;;;;;;5096393;28;20032;-71
2024/01/29 00:48:26;;;;;;;10.15;4.30;;;8.10;62.00;;;;;;5095343;28;20035;-71
2024/01/29 00:50:52;;;;;;;9.48;3.75;;;8.10;62.00;;;;;;5095995;28;20123;-71
2024/01/29 00:53:19;;;;;;;8.38;3.83;;;8.10;62.00;;;;;;5095970;28;20051;-71
2024/01/29 00:55:46;;;;;;;8.82;4.43;;;8.00;62.00;;;;;;5095411;28;20036;-70
2024/01/29 00:58:14;;;;;;;9.15;4.20;;;8.00;62.10;;;;;;5095374;28;20071;-71
2024/01/29 01:00:43;;;;;;;8.60;4.05;;;8.00;62.20;;;;;;5095234;28;20024;-71
2024/01/29 01:03:10;;;;;;;8.48;4.10;;;7.90;62.40;;;;;;5095033;28;20028;-71
2024/01/29 01:05:36;;;;;;;8.85;3.97;;;7.80;62.50;;;;;;5095390;28;20427;-71
2024/01/29 01:08:02;;;;;;;9.02;3.95;;;7.80;62.70;;;;;;5095350;28;20085;-71
2024/01/29 01:10:28;;;;;;;8.27;4.13;;;7.80;62.90;;;;;;5094649;28;21906;-70
2024/01/29 01:12:53;;;;;;;9.57;4.22;;;7.70;63.00;;;;;;5095880;28;20019;-70
2024/01/29 01:15:19;;;;;;;8.88;4.50;;;7.60;63.10;;;;;;5095552;28;20508;-70
2024/01/29 01:17:48;;;;;;;11.80;3.50;;;7.60;63.20;;;;;;5095661;28;20111;-70
2024/01/29 01:20:14;;;;;;;7.22;3.95;;;7.50;63.40;;;;;;5096871;28;20465;-70
2024/01/29 01:22:40;;;;;;;10.43;4.22;;;7.50;63.60;;;;;;5095611;28;20043;-70
2024/01/29 01:25:06;;;;;;;8.07;4.30;;;7.50;63.70;;;;;;5095163;28;20012;-70
2024/01/29 01:27:32;;;;;;;8.60;3.90;;;7.40;63.80;;;;;;5094358;28;20020;-70
2024/01/29 01:29:59;;;;;;;10.10;4.15;;;7.40;63.80;;;;;;5110353;27;20020;-70
2024/01/29 01:32:25;;;;;;;8.10;4.38;;;7.30;63.90;;;;;;5094626;28;21282;-70
2024/01/29 01:34:51;;;;;;;8.60;4.10;;;7.30;64.00;;;;;;5095116;28;20448;-70
2024/01/29 01:37:17;;;;;;;8.35;4.18;;;7.30;64.20;;;;;;5094452;28;20333;-70
2024/01/29 01:39:43;;;;;;;8.00;4.22;;;7.20;64.20;;;;;;5107934;27;20039;-70
2024/01/29 01:42:09;;;;;;;10.07;3.55;;;7.20;64.30;;;;;;5096588;28;20096;-70
2024/01/29 01:44:35;;;;;;;10.07;4.55;;;7.20;64.40;;;;;;5094692;28;20024;-70
2024/01/29 01:47:01;;;;;;;8.35;4.10;;;7.20;64.50;;;;;;5110367;28;20421;-70
2024/01/29 01:49:28;;;;;;;7.88;3.55;;;7.10;64.60;;;;;;5094873;28;20020;-70
2024/01/29 01:51:53;;;;;;;7.93;3.30;;;7.10;64.70;;;;;;5095687;28;20075;-70
2024/01/29 01:54:20;;;;;;;8.20;3.70;;;7.10;64.70;;;;;;5095165;28;20116;-70
2024/01/29 01:56:48;;;;;;;9.07;4.10;;;7.00;64.80;;;;;;5094425;28;20028;-70
2024/01/29 01:59:13;;;;;;;8.73;4.13;;;7.00;65.00;;;;;;5093843;28;20024;-70
2024/01/29 02:01:39;;;;;;;7.43;3.87;;;7.00;65.10;;;;;;5095126;28;20320;-70
2024/01/29 02:04:05;;;;;;;7.90;4.15;;;7.00;65.10;;;;;;5094498;28;20456;-70
2024/01/29 02:06:31;;;;;;;7.33;4.07;;;6.90;65.10;;;;;;5094468;28;20119;-70
2024/01/29 02:08:59;;;;;;;10.53;4.00;;;7.00;65.30;;;;;;5094589;28;20063;-71
2024/01/29 02:11:25;;;;;;;7.83;4.00;;;6.90;65.30;;;;;;5095088;28;20415;-70
2024/01/29 02:13:51;;;;;;;11.63;3.85;;;6.90;65.40;;;;;;5093021;28;20024;-70
2024/01/29 02:16:17;;;;;;;7.23;3.50;;;6.90;65.40;;;;;;5093169;28;20031;-70
2024/01/29 02:18:43;;;;;;;8.32;3.80;;;6.90;65.50;;;;;;5093690;28;20058;-70
2024/01/29 02:21:09;;;;;;;7.33;3.90;;;6.90;65.60;;;;;;5093661;28;20085;-70
2024/01/29 02:23:35;;;;;;;7.37;3.87;;;6.80;65.60;;;;;;5093188;28;20027;-70
2024/01/29 02:26:01;;;;;;;7.85;3.60;;;6.80;65.70;;;;;;5094124;28;20141;-70
2024/01/29 02:28:27;;;;;;;7.30;3.85;;;6.80;65.70;;;;;;5109795;28;20345;-70
2024/01/29 02:30:54;;;;;;;7.78;3.95;;;6.80;65.80;;;;;;5093055;28;20038;-70
2024/01/29 02:33:20;;;;;;;10.80;4.20;;;6.80;65.80;;;;;;5092843;28;20113;-70
2024/01/29 02:35:46;;;;;;;9.03;4.13;;;6.80;65.90;;;;;;5094402;28;20131;-70
2024/01/29 02:38:12;;;;;;;10.30;4.22;;;6.70;65.90;;;;;;5093457;28;20024;-70
2024/01/29 02:40:37;;;;;;;9.60;4.23;;;6.80;66.00;;;;;;5094118;28;20024;-70
2024/01/29 02:43:03;;;;;;;7.73;3.43;;;6.70;66.00;;;;;;5092936;28;20074;-71
2024/01/29 02:45:29;;;;;;;7.97;4.00;;;6.70;66.10;;;;;;5094312;28;20020;-71
2024/01/29 02:47:55;;;;;;;7.33;3.87;;;6.70;66.20;;;;;;5093469;28;20038;-71
2024/01/29 02:50:22;;;;;;;7.43;4.20;;;6.70;66.30;;;;;;5092562;28;20052;-70
2024/01/29 02:52:48;;;;;;;8.13;4.00;;;6.60;66.30;;;;;;5093806;28;20043;-70
2024/01/29 02:55:14;;;;;;;8.80;4.20;;;6.60;66.30;;;;;;5095270;28;20357;-70
2024/01/29 02:57:40;;;;;;;9.37;4.30;;;6.60;66.40;;;;;;5094064;28;20054;-71
2024/01/29 03:00:06;;;;;;;8.50;3.70;;;6.60;66.40;;;;;;5094592;28;20012;-71
2024/01/29 03:02:32;;;;;;;8.93;4.50;;;6.60;66.50;;;;;;5093955;28;20024;-70
2024/01/29 03:04:58;;;;;;;8.63;4.37;;;6.60;66.60;;;;;;5093951;28;20474;-71
2024/01/29 03:07:23;;;;;;;7.47;4.20;;;6.60;66.70;;;;;;5094078;28;20024;-70
2024/01/29 03:09:49;;;;;;;9.50;4.57;;;6.50;66.70;;;;;;5094405;28;20035;-71
2024/01/29 03:12:15;;;;;;;9.67;4.20;;;6.50;66.70;;;;;;5093318;28;20043;-71
2024/01/29 03:14:41;;;;;;;9.83;4.43;;;6.50;66.80;;;;;;5074861;28;20028;-70
2024/01/29 03:17:07;;;;;;;9.53;4.07;;;6.50;66.80;;;;;;5092808;28;20111;-70
2024/01/29 03:19:33;;;;;;;9.00;4.33;;;6.50;66.90;;;;;;5094048;28;20016;-71
2024/01/29 03:21:59;;;;;;;7.83;3.97;;;6.40;67.00;;;;;;5094074;28;20348;-71
2024/01/29 03:24:25;;;;;;;6.72;3.35;;;6.40;66.90;;;;;;5093660;28;20024;-71
2024/01/29 03:26:50;;;;;;;10.13;4.40;;;6.40;67.00;;;;;;5092211;28;20501;-70
2024/01/29 03:29:16;;;;;;;8.07;4.13;;;6.40;67.10;;;;;;5091824;28;20507;-70
2024/01/29 03:31:42;;;;;;;7.57;3.77;;;6.30;67.20;;;;;;5093743;28;20464;-70
2024/01/29 03:34:08;;;;;;;9.13;4.40;;;6.30;67.20;;;;;;5093636;28;20376;-70
2024/01/29 03:36:34;;;;;;;8.10;4.00;;;6.30;67.20;;;;;;5093817;28;20016;-70
2024/01/29 03:38:59;;;;;;;9.83;4.60;;;6.30;67.20;;;;;;5092741;28;20028;-70
2024/01/29 03:41:25;;;;;;;9.33;4.60;;;6.30;67.30;;;;;;5093948;28;20032;-71
2024/01/29 03:43:51;;;;;;;8.63;3.93;;;6.30;67.30;;;;;;5093682;28;20085;-71
2024/01/29 03:46:17;;;;;;;8.80;4.47;;;6.30;67.40;;;;;;5093466;28;20028;-70
2024/01/29 03:48:43;;;;;;;8.00;4.53;;;6.20;67.40;;;;;;5093330;28;20036;-71
2024/01/29 03:51:09;;;;;;;7.70;4.37;;;6.20;67.50;;;;;;5090734;28;20052;-71
2024/01/29 03:53:35;;;;;;;9.60;4.83;;;6.20;67.50;;;;;;5088557;28;20040;-71
2024/01/29 03:56:00;;;;;;;8.47;4.40;;;6.20;67.50;;;;;;5087222;28;20441;-72
2024/01/29 03:58:26;;;;;;;7.80;4.33;;;6.20;67.50;;;;;;5091172;28;20035;-71
2024/01/29 04:00:52;;;;;;;9.40;4.27;;;6.20;67.60;;;;;;5092272;28;20107;-71
2024/01/29 04:03:18;;;;;;;8.80;4.40;;;6.20;67.60;;;;;;5090899;28;20410;-71
2024/01/29 04:05:47;;;;;;;8.80;4.73;;;6.20;67.70;;;;;;5093187;28;20035;-71
2024/01/29 04:08:12;;;;;;;10.77;4.50;;;6.10;67.70;;;;;;5092018;28;20411;-70
2024/01/29 04:10:38;;;;;;;8.50;4.27;;;6.10;67.70;;;;;;5092298;28;20060;-71
2024/01/29 04:13:04;;;;;;;10.27;5.03;;;6.10;67.80;;;;;;5093240;28;20472;-70
2024/01/29 04:15:30;;;;;;;9.03;4.30;;;6.10;67.80;;;;;;5092548;28;20020;-70
2024/01/29 04:17:56;;;;;;;9.23;4.37;;;6.10;67.80;;;;;;5093183;28;20016;-71
2024/01/29 04:20:21;;;;;;;8.20;3.80;;;6.10;67.90;;;;;;5077119;28;20016;-70
2024/01/29 04:22:47;;;;;;;9.33;4.47;;;6.10;67.90;;;;;;5091093;28;20333;-71
2024/01/29 04:25:13;;;;;;;8.10;4.67;;;6.10;68.10;;;;;;5091978;28;20463;-70
2024/01/29 04:27:39;;;;;;;9.60;4.53;;;6.00;68.10;;;;;;5092134;28;20025;-70
2024/01/29 04:30:05;;;;;;;8.50;3.83;;;6.00;68.10;;;;;;5090996;28;20456;-70
2024/01/29 04:32:31;;;;;;;8.77;4.27;;;6.00;68.10;;;;;;5092952;28;20028;-71
2024/01/29 04:34:57;;;;;;;9.13;4.87;;;6.00;68.20;;;;;;5091897;28;20111;-70
2024/01/29 04:37:24;;;;;;;8.10;4.07;;;6.00;68.20;;;;;;5093422;28;20034;-70
2024/01/29 04:39:50;;;;;;;10.53;4.53;;;6.00;68.20;;;;;;5094448;28;20032;-70
2024/01/29 04:42:15;;;;;;;10.40;4.50;;;6.00;68.20;;;;;;5096878;28;20045;-70
2024/01/29 04:44:41;;;;;;;8.47;4.40;;;6.00;68.30;;;;;;5095693;28;20031;-70
2024/01/29 04:47:07;;;;;;;8.13;4.43;;;6.00;68.40;;;;;;5095446;28;20035;-70
2024/01/29 04:49:33;;;;;;;9.17;4.53;;;6.00;68.40;;;;;;5096471;28;20020;-70
2024/01/29 04:51:58;;;;;;;9.13;4.60;;;6.00;68.40;;;;;;5096099;28;20443;-70
2024/01/29 04:54:24;;;;;;;9.20;5.00;;;6.00;68.50;;;;;;5095866;28;20028;-70
2024/01/29 04:56:50;;;;;;;10.17;4.50;;;5.90;68.50;;;;;;5100932;28;20103;-70
2024/01/29 04:59:17;;;;;;;7.90;4.43;;;5.90;68.60;;;;;;5094955;28;20127;-70
2024/01/29 05:01:42;;;;;;;9.40;4.90;;;5.90;68.60;;;;;;5102172;27;20482;-70
2024/01/29 05:04:08;;;;;;;8.67;4.17;;;5.90;68.70;;;;;;5094918;28;20076;-70
2024/01/29 05:06:34;;;;;;;9.93;4.63;;;5.90;68.70;;;;;;5094712;28;20118;-71
2024/01/29 05:09:00;;;;;;;9.40;4.68;;;5.90;68.80;;;;;;5111049;28;20035;-70
2024/01/29 05:11:26;;;;;;;9.70;4.83;;;5.90;68.80;;;;;;5095553;28;20024;-70
2024/01/29 05:13:53;;;;;;;9.33;4.80;;;5.80;68.80;;;;;;5095234;28;20467;-70
2024/01/29 05:16:19;;;;;;;11.00;5.20;;;5.80;68.90;;;;;;5096453;28;20453;-70
2024/01/29 05:18:45;;;;;;;9.27;4.50;;;5.80;68.90;;;;;;5095438;28;20016;-70
2024/01/29 05:21:11;;;;;;;11.07;5.10;;;5.80;68.90;;;;;;5095643;28;20032;-70
2024/01/29 05:23:37;;;;;;;10.10;4.67;;;5.80;69.00;;;;;;5095840;28;20042;-70
2024/01/29 05:26:04;;;;;;;8.27;4.83;;;5.80;69.00;;;;;;5096064;28;20024;-70
2024/01/29 05:28:30;;;;;;;8.30;4.77;;;5.80;69.00;;;;;;5095070;28;20028;-70
2024/01/29 05:30:56;;;;;;;11.87;5.40;;;5.70;69.00;;;;;;5094697;28;20089;-70
2024/01/29 05:33:21;;;;;;;10.17;5.17;;;5.70;69.10;;;;;;5095566;28;20024;-70
2024/01/29 05:35:47;;;;;;;9.37;4.40;;;5.70;69.10;;;;;;5095666;28;20054;-70
2024/01/29 05:38:13;;;;;;;10.17;4.90;;;5.70;69.10;;;;;;5095621;28;20093;-70
2024/01/29 05:40:39;;;;;;;10.03;4.60;;;5.70;69.10;;;;;;5094821;28;20089;-70
2024/01/29 05:43:04;;;;;;;8.83;5.10;;;5.70;69.20;;;;;;5094114;28;20428;-70
2024/01/29 05:45:30;;;;;;;11.47;5.40;;;5.70;69.20;;;;;;5096058;28;20425;-70
2024/01/29 05:47:56;;;;;;;8.30;4.50;;;5.60;69.20;;;;;;5094978;28;20028;-70
2024/01/29 05:50:22;;;;;;;8.57;5.13;;;5.60;69.30;;;;;;5095006;28;20056;-70
2024/01/29 05:52:47;;;;;;;9.23;5.27;;;5.60;69.30;;;;;;5094055;28;20030;-70
2024/01/29 05:55:13;;;;;;;8.87;4.80;;;5.60;69.30;;;;;;5095725;28;20031;-70
2024/01/29 05:57:39;;;;;;;8.93;5.00;;;5.60;69.30;;;;;;5094150;28;20417;-71
2024/01/29 06:00:09;;;;;;;9.83;4.57;;;5.60;69.40;;;;;;5095940;28;20395;-70
2024/01/29 06:02:46;;;;;;;10.97;4.80;;;5.60;69.40;;;;;;5094056;28;20054;-70
2024/01/29 06:05:12;;;;;;;8.10;4.63;;;5.50;69.40;;;;;;5092915;28;20062;-70
2024/01/29 06:07:41;;;;;;;9.80;4.70;;;5.50;69.50;;;;;;5092795;28;20115;-70
2024/01/29 06:10:13;;;;;;;9.10;4.67;;;5.50;69.50;;;;;;5093586;28;20057;-70
2024/01/29 06:12:39;;;;;;;8.90;4.97;;;5.50;69.60;;;;;;5090866;28;20036;-70
2024/01/29 06:15:05;;;;;;;10.17;5.23;;;5.50;69.50;;;;;;5093681;28;20020;-70
2024/01/29 06:17:31;;;;;;;10.50;5.27;;;5.50;69.60;;;;;;5093425;28;20027;-70
2024/01/29 06:19:57;;;;;;;10.53;5.10;;;5.50;69.60;;;;;;5094793;28;20468;-70
2024/01/29 06:22:22;;;;;;;9.23;4.80;;;5.50;69.70;;;;;;5093576;28;20024;-70
2024/01/29 06:24:48;;;;;;;10.40;5.07;;;5.60;69.80;;;;;;5092949;28;20036;-70
2024/01/29 06:27:14;;;;;;;9.07;5.33;;;5.50;69.70;;;;;;5094006;28;20051;-71
2024/01/29 06:29:40;;;;;;;10.43;5.50;;;5.60;69.80;;;;;;5093250;28;20032;-71
2024/01/29 06:32:05;;;;;;;10.13;4.80;;;5.60;69.80;;;;;;5092591;28;20036;-71
2024/01/29 06:34:33;;;;;;;9.40;5.00;;;5.60;69.90;;;;;;5094331;28;20403;-70
2024/01/29 06:36:59;;;;;;;10.30;5.00;;;5.60;69.90;;;;;;5094590;28;20028;-69
2024/01/29 06:39:25;;;;;;;9.10;5.23;;;5.60;70.00;;;;;;5093891;28;20039;-70
2024/01/29 06:41:51;;;;;;;9.33;4.70;;;5.60;69.90;;;;;;5092604;28;20036;-69
2024/01/29 06:44:17;;;;;;;10.40;5.47;;;5.60;70.00;;;;;;5092425;28;20038;-70
2024/01/29 06:46:43;;;;;;;10.27;5.57;;;5.60;70.00;;;;;;5104887;27;20043;-69
2024/01/29 06:49:34;;;;;;;9.27;5.07;;;5.60;70.00;;;;;;5093757;28;20059;-69
2024/01/29 06:51:59;;;;;;;9.27;4.68;;;5.70;70.10;;;;;;5090876;28;20419;-69
2024/01/29 06:54:25;;;;;;;8.97;5.03;;;5.60;70.00;;;;;;5093928;28;20024;-69
2024/01/29 06:56:52;;;;;;;8.90;4.90;;;5.60;70.00;;;;;;5093275;28;20116;-70
2024/01/29 06:59:18;;;;;;;9.97;5.30;;;5.70;70.10;;;;;;5093936;28;20341;-69
2024/01/29 07:01:44;;;;;;;12.13;5.43;;;5.70;70.10;;;;;;5091763;28;20036;-70
2024/01/29 07:04:09;;;;;;;11.37;5.40;;;5.70;70.10;;;;;;5093773;28;20031;-69
2024/01/29 07:06:35;;;;;;;9.17;5.03;;;5.70;70.10;;;;;;5093910;28;20357;-69
2024/01/29 07:09:01;;;;;;;9.90;5.27;;;5.80;70.20;;;;;;5076670;28;20111;-70
2024/01/29 07:11:27;;;;;;;11.47;5.33;;;5.80;70.10;;;;;;5092967;28;20119;-69
2024/01/29 07:13:53;;;;;;;10.30;5.27;;;5.80;70.10;;;;;;5093056;28;20016;-70
2024/01/29 07:16:18;;;;;;;9.93;5.03;;;5.80;70.20;;;;;;5093977;28;20059;-70
2024/01/29 07:18:44;;;;;;;11.63;5.73;;;5.80;70.20;;;;;;5094091;28;20028;-69
2024/01/29 07:21:10;;;;;;;10.27;5.43;;;5.80;70.30;;;;;;5094028;28;20069;-70
2024/01/29 07:23:36;;;;;;;9.90;5.20;;;5.80;70.30;;;;;;5093898;28;20472;-70
2024/01/29 07:26:02;;;;;;;9.83;4.93;;;5.80;70.30;;;;;;5092677;28;20024;-71
2024/01/29 07:28:27;;;;;;;14.13;6.87;;;5.90;70.40;;;;;;5092593;28;20361;-69
2024/01/29 07:30:53;;;;;;;14.10;7.40;;;5.90;70.40;;;;;;5092104;28;20055;-71
2024/01/29 07:33:19;;;;;;;19.33;9.63;;;5.90;70.40;;;;;;5092752;28;20500;-70
2024/01/29 07:35:45;;;;;;;18.63;9.73;;;5.90;70.40;;;;;;5091999;28;20028;-69
2024/01/29 07:38:10;;;;;;;17.63;9.70;;;5.90;70.40;;;;;;5093601;28;20100;-70
2024/01/29 07:40:37;;;;;;;18.17;9.80;;;6.00;70.50;;;;;;5092739;28;20396;-70
2024/01/29 07:43:03;;;;;;;17.10;9.50;;;6.00;70.40;;;;;;5092303;28;20024;-70
2024/01/29 07:45:29;;;;;;;17.20;9.10;;;6.00;70.50;;;;;;5093118;28;20046;-69
2024/01/29 07:47:55;;;;;;;25.80;10.53;;;6.10;70.50;;;;;;5092238;28;20024;-69
2024/01/29 07:50:20;;;;;;;24.30;9.93;;;6.10;70.50;;;;;;5092404;28;20038;-70
2024/01/29 07:52:46;;;;;;;23.90;9.53;;;6.10;70.50;;;;;;5096687;28;20040;-69
2024/01/29 07:55:12;;;;;;;41.40;12.67;;;6.20;71.20;;;;;;5094848;28;20024;-69
2024/01/29 07:57:38;;;;;;;37.23;10.27;;;6.20;70.40;;;;;;5101071;28;20025;-69
2024/01/29 08:00:04;;;;;;;32.13;11.20;;;6.20;70.50;;;;;;5091888;28;20024;-70
2024/01/29 08:02:30;;;;;;;33.37;10.90;;;6.30;70.50;;;;;;5092047;28;20309;-70
2024/01/29 08:04:56;;;;;;;42.10;12.07;;;6.30;70.50;;;;;;5093011;28;20035;-71
2024/01/29 08:07:22;;;;;;;31.73;11.00;;;6.30;70.50;;;;;;5091529;28;20460;-70
2024/01/29 08:09:48;;;;;;;32.87;9.83;;;6.30;70.50;;;;;;5092079;28;20024;-69
2024/01/29 08:12:14;;;;;;;27.63;10.27;;;6.40;70.60;;;;;;5091795;28;20020;-69
2024/01/29 08:14:40;;;;;;;31.53;11.03;;;6.40;70.60;;;;;;5093387;28;20368;-69
2024/01/29 08:17:06;;;;;;;41.03;12.30;;;6.40;70.70;;;;;;5096358;28;20431;-69
2024/01/29 08:19:31;;;;;;;31.50;11.80;;;6.50;70.70;;;;;;5082993;28;20407;-69
2024/01/29 08:21:57;;;;;;;24.43;10.43;;;6.50;70.70;;;;;;5098794;28;20039;-69
2024/01/29 08:24:23;;;;;;;24.13;9.23;;;6.60;70.70;;;;;;5095861;28;20035;-69
2024/01/29 08:26:49;;;;;;;19.97;7.53;;;6.70;70.60;;;;;;5096469;28;20032;-70
2024/01/29 08:29:15;;;;;;;20.03;7.00;;;6.90;70.50;;;;;;5094809;28;20020;-69
2024/01/29 08:31:40;;;;;;;21.50;6.80;;;7.00;70.30;;;;;;5094229;28;20457;-69
2024/01/29 08:34:06;;;;;;;14.18;6.20;;;7.20;70.10;;;;;;5077049;28;20027;-70
2024/01/29 08:36:33;;;;;;;10.40;5.10;;;7.40;69.90;;;;;;5094913;28;20027;-70
2024/01/29 08:38:59;;;;;;;9.65;5.47;;;7.50;69.60;;;;;;5093485;28;20028;-69
2024/01/29 08:41:24;;;;;;;10.80;5.47;;;7.70;69.40;;;;;;5095115;28;20176;-69
2024/01/29 08:43:50;;;;;;;10.80;5.43;;;7.80;69.20;;;;;;5096271;28;20038;-69
2024/01/29 08:46:16;;;;;;;9.73;5.67;;;7.90;69.10;;;;;;5095952;28;20024;-70
2024/01/29 08:48:42;;;;;;;11.90;5.77;;;8.00;68.90;;;;;;5097589;28;20371;-69
2024/01/29 08:51:08;;;;;;;13.40;5.70;;;8.10;68.80;;;;;;5079203;28;20151;-70
2024/01/29 08:53:34;;;;;;;17.52;6.57;;;8.20;68.80;;;;;;5093982;28;20048;-71
2024/01/29 08:56:00;;;;;;;12.45;5.93;;;8.30;68.80;;;;;;5095652;28;20459;-67
2024/01/29 08:58:26;;;;;;;10.73;5.68;;;8.40;68.70;;;;;;5086585;28;20145;-68
2024/01/29 09:00:54;;;;;;;13.88;5.90;;;8.40;68.60;;;;;;5094419;28;20034;-68
2024/01/29 09:03:20;;;;;;;12.00;5.85;;;8.50;68.50;;;;;;5090314;28;20016;-69
2024/01/29 09:05:48;;;;;;;12.07;5.28;;;8.60;68.40;;;;;;5094679;28;20020;-68
2024/01/29 09:08:14;;;;;;;10.47;5.47;;;8.70;68.90;;;;;;5093660;28;20104;-69
2024/01/29 09:10:41;;;;;;;11.48;5.88;;;8.80;68.20;;;;;;5093725;28;20204;-69
2024/01/29 09:13:07;;;;;;;9.93;5.40;;;8.80;68.20;;;;;;5079436;28;20074;-68
2024/01/29 09:15:33;;;;;;;11.48;5.50;;;8.80;68.10;;;;;;5094132;28;20063;-68
2024/01/29 09:17:58;;;;;;;10.73;5.45;;;8.80;68.10;;;;;;5094033;28;20024;-68
2024/01/29 09:20:27;;;;;;;11.68;5.93;;;8.80;68.00;;;;;;5093927;28;20039;-68
2024/01/29 09:22:53;;;;;;;10.30;5.18;;;8.80;68.00;;;;;;5092995;28;20020;-69
2024/01/29 09:25:19;;;;;;;9.65;4.72;;;8.80;68.00;;;;;;5093911;28;20022;-68
2024/01/29 09:27:45;;;;;;;10.63;5.63;;;8.90;68.00;;;;;;5091974;28;21662;-68
2024/01/29 09:30:11;;;;;;;9.40;5.22;;;8.90;67.90;;;;;;5093021;28;20114;-69
2024/01/29 09:32:36;;;;;;;10.20;5.32;;;9.00;67.90;;;;;;5096549;28;20040;-69
2024/01/29 09:35:04;;;;;;;11.27;5.70;;;9.00;67.80;;;;;;5093868;28;20052;-68
2024/01/29 09:37:29;;;;;;;10.23;5.53;;;9.00;67.70;;;;;;5094901;28;20020;-68
2024/01/29 09:39:55;;;;;;;9.68;5.80;;;9.10;67.70;;;;;;5100276;28;20027;-68
2024/01/29 09:42:24;;;;;;;14.30;6.63;;;9.20;67.50;;;;;;5092830;28;20360;-68
2024/01/29 09:44:53;;;;;;;16.52;5.90;;;9.30;67.40;;;;;;5093875;28;20020;-67
2024/01/29 09:47:20;;;;;;;12.80;6.43;;;9.40;67.30;;;;;;5094080;28;20085;-69
2024/01/29 09:49:46;;;;;;;10.02;5.47;;;9.50;67.10;;;;;;5094715;28;20042;-70
2024/01/29 09:52:13;;;;;;;12.40;5.85;;;9.60;66.80;;;;;;5094211;28;20130;-67
2024/01/29 09:54:40;;;;;;;11.07;5.30;;;9.80;66.70;;;;;;5095486;28;20107;-70
2024/01/29 09:57:11;;;;;;;9.20;5.43;;;9.90;66.40;;;;;;5095464;28;20030;-68
2024/01/29 09:59:37;;;;;;;10.20;5.88;;;10.00;66.20;;;;;;5095229;28;20020;-69
2024/01/29 10:02:04;;;;;;;9.95;5.60;;;10.10;66.10;;;;;;5092431;28;20030;-67
2024/01/29 10:04:30;;;;;;;11.02;5.75;;;10.30;65.90;;;;;;5087801;28;20027;-70
2024/01/29 10:06:55;;;;;;;11.35;5.55;;;10.30;65.70;;;;;;5105830;28;20032;-68
2024/01/29 10:09:21;;;;;;;10.60;5.40;;;10.40;65.50;;;;;;5104738;28;20032;-68
2024/01/29 10:11:49;;;;;;;11.73;6.30;;;10.60;65.40;;;;;;5094675;28;20063;-68
2024/01/29 10:14:16;;;;;;;9.73;5.95;;;10.70;65.10;;;;;;5095462;28;20028;-68
2024/01/29 10:16:42;;;;;;;9.25;5.30;;;10.90;64.90;;;;;;5094965;28;20165;-68
2024/01/29 10:19:09;;;;;;;12.63;6.55;;;11.10;64.60;;;;;;5094818;28;20031;-68
2024/01/29 10:21:45;;;;;;;15.15;6.30;;;11.30;64.30;;;;;;5095854;28;20364;-68
2024/01/29 10:24:15;;;;;;;12.32;6.03;;;11.30;63.90;;;;;;5095407;28;20031;-68
2024/01/29 10:26:45;;;;;;;10.53;5.87;;;11.50;63.70;;;;;;5095941;28;20043;-68
2024/01/29 10:29:11;;;;;;;13.25;6.07;;;11.50;63.50;;;;;;5094359;28;20016;-68
2024/01/29 10:31:38;;;;;;;11.23;6.30;;;11.50;63.50;;;;;;5077619;28;20035;-68
2024/01/29 10:34:05;;;;;;;11.88;6.43;;;11.50;63.50;;;;;;5094085;28;20015;-68
2024/01/29 10:36:31;;;;;;;12.75;6.00;;;11.50;63.50;;;;;;5095365;28;20078;-68
2024/01/29 10:38:59;;;;;;;10.07;6.15;;;11.50;63.50;;;;;;5094900;28;20024;-68
2024/01/29 10:41:26;;;;;;;10.35;5.93;;;11.40;63.50;;;;;;5095526;28;20051;-68
2024/01/29 10:43:52;;;;;;;10.65;6.60;;;11.40;63.60;;;;;;5095457;28;20474;-68
2024/01/29 10:46:20;;;;;;;10.20;5.63;;;11.40;63.60;;;;;;5092866;28;20127;-68
2024/01/29 10:48:51;;;;;;;10.73;6.90;;;11.40;63.50;;;;;;5095686;28;20036;-68
2024/01/29 10:51:18;;;;;;;10.00;6.18;;;11.40;63.30;;;;;;5094321;28;20040;-68
2024/01/29 10:53:45;;;;;;;11.23;6.00;;;11.50;63.30;;;;;;5095492;28;20093;-68
2024/01/29 10:56:12;;;;;;;10.80;6.32;;;11.60;63.20;;;;;;5094964;28;20020;-68
2024/01/29 10:58:38;;;;;;;10.15;6.20;;;11.70;63.00;;;;;;5095742;28;20073;-68
2024/01/29 11:01:05;;;;;;;11.30;6.35;;;11.70;62.80;;;;;;5095346;28;20028;-68
2024/01/29 11:03:36;;;;;;;14.90;6.47;;;11.80;62.80;;;;;;5080871;28;20062;-69
2024/01/29 11:06:24;;;;;;;15.40;6.68;;;12.00;62.60;;;;;;5093719;28;20031;-68
2024/01/29 11:08:58;;;;;;;12.18;6.40;;;12.10;62.40;;;;;;5095060;28;20023;-69
2024/01/29 11:11:27;;;;;;;9.93;5.50;;;12.20;62.30;;;;;;5094995;28;20116;-68
2024/01/29 11:13:53;;;;;;;12.48;5.78;;;12.20;62.20;;;;;;5094909;28;20020;-68
2024/01/29 11:16:22;;;;;;;9.20;5.82;;;12.30;62.10;;;;;;5093190;28;20027;-68
2024/01/29 11:18:49;;;;;;;10.43;6.20;;;12.40;62.00;;;;;;5093707;28;20451;-68
2024/01/29 11:21:14;;;;;;;9.70;5.35;;;12.40;62.00;;;;;;5093647;28;20020;-69
2024/01/29 11:23:47;;;;;;;11.70;6.50;;;12.50;62.00;;;;;;5094883;28;20054;-69
2024/01/29 11:26:17;;;;;;;10.52;6.32;;;12.50;61.90;;;;;;5110861;28;20085;-68
2024/01/29 11:28:43;;;;;;;10.13;5.63;;;12.60;61.80;;;;;;5093152;28;20028;-68
2024/01/29 11:31:13;;;;;;;12.15;5.93;;;12.60;61.80;;;;;;5093829;28;20028;-68
2024/01/29 11:33:39;;;;;;;10.65;6.32;;;12.70;61.80;;;;;;5094329;28;20387;-68
2024/01/29 11:36:12;;;;;;;10.93;6.20;;;12.60;61.70;;;;;;5094520;28;20055;-68
2024/01/29 11:38:38;;;;;;;12.18;6.25;;;12.60;61.80;;;;;;5095481;28;20028;-68
2024/01/29 11:41:04;;;;;;;11.18;6.15;;;12.50;62.00;;;;;;5105259;28;20089;-68
2024/01/29 11:43:31;;;;;;;11.20;6.78;;;12.50;62.20;;;;;;5110714;28;20440;-68
2024/01/29 11:45:57;;;;;;;11.90;6.65;;;12.50;62.30;;;;;;5094310;28;20437;-68
2024/01/29 11:48:26;;;;;;;9.65;5.90;;;12.60;62.30;;;;;;5094294;28;20050;-68
2024/01/29 11:50:57;;;;;;;10.82;6.00;;;12.50;62.20;;;;;;5100346;28;20054;-68
2024/01/29 11:53:25;;;;;;;11.83;6.27;;;12.50;62.20;;;;;;5101343;28;20055;-68
2024/01/29 11:55:52;;;;;;;10.90;6.53;;;12.50;62.30;;;;;;5100454;28;20111;-68
2024/01/29 11:58:20;;;;;;;10.70;6.93;;;12.50;62.40;;;;;;5100514;28;20039;-68
2024/01/29 12:00:47;;;;;;;13.55;6.82;;;12.40;62.60;;;;;;5100721;28;20395;-69
2024/01/29 12:03:15;;;;;;;10.40;6.15;;;12.40;62.90;;;;;;5086911;28;20028;-68
2024/01/29 12:05:45;;;;;;;10.43;6.65;;;12.30;63.00;;;;;;5101004;28;20074;-68
2024/01/29 12:08:26;;;;;;;12.10;6.90;;;12.30;63.10;;;;;;5099997;28;20035;-68
2024/01/29 12:10:58;;;;;;;12.33;6.93;;;12.20;63.30;;;;;;5104237;28;20047;-69
2024/01/29 12:13:24;;;;;;;11.60;6.70;;;12.20;63.50;;;;;;5102454;28;20274;-69
2024/01/29 12:15:52;;;;;;;10.68;7.07;;;12.10;63.70;;;;;;5101387;28;20103;-70
2024/01/29 12:18:25;;;;;;;11.35;7.13;;;12.00;63.80;;;;;;5095958;28;20115;-70
2024/01/29 12:20:51;;;;;;;14.15;7.50;;;12.00;64.10;;;;;;5094218;28;20028;-70
2024/01/29 12:23:21;;;;;;;12.63;6.97;;;12.00;64.20;;;;;;5094028;28;20452;-70
2024/01/29 12:25:52;;;;;;;16.27;7.88;;;11.90;64.30;;;;;;5073074;28;20059;-70
2024/01/29 12:28:17;;;;;;;17.08;8.10;;;11.90;64.40;;;;;;5069393;28;20066;-70
2024/01/29 12:30:57;;;;;;;19.63;9.13;;;11.90;64.60;;;;;;5097350;28;20102;-69
2024/01/29 12:33:30;;;;;;;14.27;6.75;;;11.90;64.70;;;;;;5099812;28;20023;-69
2024/01/29 12:35:57;;;;;;;12.82;6.97;;;11.90;64.70;;;;;;5103539;28;20449;-70
2024/01/29 12:38:24;;;;;;;11.70;7.03;;;11.80;64.70;;;;;;5099580;28;20089;-70
2024/01/29 12:40:56;;;;;;;11.38;7.05;;;11.90;64.80;;;;;;5099194;28;20121;-70
2024/01/29 12:43:29;;;;;;;12.82;7.25;;;11.80;65.50;;;;;;5098979;28;20052;-69
2024/01/29 12:46:12;;;;;;;12.30;6.95;;;11.90;64.90;;;;;;5099981;28;20092;-68
2024/01/29 12:48:38;;;;;;;11.13;6.63;;;11.90;64.90;;;;;;5102449;28;20352;-69